TFM - Tactical Decision Aid
ID: Runway Winds: CIG/VIS Threshold:

KMEM - Memphis Intl, TN, US

Updated at: 1811 UTC 19 Aug 2019
Latest TAF at: 1735 UTC 19 Aug 2019

TAF Board

Time1754Z 19/19Z 19/20Z 19/21Z 19/22Z 19/23Z 20/00Z 20/01Z 20/02Z 20/03Z 20/04Z 20/05Z 20/06Z 20/07Z>>
Type OBS PRVL PRVL PRVL PRVL PRVL PRVL PRVL PRVL PRVL PRVL PRVL PRVL PRVL
VIS 10 >6 >6 >6 >6 >6 >6 >6 >6 >6 >6 >6 >6 >6
CIG 40 -- -- 250 250 250 250 -- -- -- -- -- -- --
Cover BKN SCT SCT BKN BKN BKN BKN SCT SCT SCT SCT SCT SCT SCT
FltCat VFR VFR VFR VFR VFR VFR VFR VFR VFR VFR VFR VFR VFR VFR
WX -- -- -- VCSH VCSH VCSH VCSH -- -- -- -- -- -- --
WDir VRB 130 130 160 160 160 160 170 170 170 170 170 170 170
WSpd 0 5 5 5 5 5 5 4 4 4 4 4 4 4
WGst -- -- -- -- -- -- -- -- -- -- -- -- -- --

TDA Impact Legend

  None Marginal Slight Moderate High
Visibility (sm) >5 3≤X≤5 1≤X<3 0.5≤X<1 <0.5
Ceiling (100 ft) >30 10≤X≤30 4≤X<10 2≤X<4 <2
Wind Speed (kt) <15 15≤X<25 25≤X<30 ≥30
Wind Gust (kt) <15 15≤X<25 25≤X<35 ≥35
Weather No Wx Reported VCTS -TS,-FZRA TS,FZRA +TS,+FZRA
TAF
KMEM 191735Z 1918/2024 13005KT P6SM SCT040 SCT250
  FM192100 16005KT P6SM VCSH SCT040 BKN250
  FM200100 17004KT P6SM SCT250
  TEMPO 2010/2013 5SM BR
  FM201400 19005KT P6SM SCT040
  FM202100 20005KT P6SM VCSH SCT050 SCT250


METAR
KMEM 191754Z 00000KT 10SM BKN040 BKN250 33/24 A3003 RMK AO2 SLP165 T03280239 10339 20244 58004
KMEM 191654Z VRB03KT 10SM FEW035 SCT250 32/25 A3004 RMK AO2 SLP169 T03220250
KMEM 191554Z 00000KT 10SM CLR 31/25 A3005 RMK AO2 SLP169 T03110250
KMEM 191454Z VRB03KT 10SM CLR 30/24 A3005 RMK AO2 SLP170 T03000244 51006

Radar Display
Forecast Discussion